sensor_id;sensor_type;location;lat;lon;timestamp;temperature;humidity
37938;DHT22;23763;48.130;11.602;2022-08-01T00:01:22;22.60;96.20
37938;DHT22;23763;48.130;11.602;2022-08-01T00:03:48;22.60;96.10
37938;DHT22;23763;48.130;11.602;2022-08-01T00:06:15;22.60;96.30
37938;DHT22;23763;48.130;11.602;2022-08-01T00:08:40;22.60;96.20
37938;DHT22;23763;48.130;11.602;2022-08-01T00:11:06;22.50;96.20
37938;DHT22;23763;48.130;11.602;2022-08-01T00:13:33;22.50;96.30
37938;DHT22;23763;48.130;11.602;2022-08-01T00:15:59;22.50;96.40
37938;DHT22;23763;48.130;11.602;2022-08-01T00:18:25;22.50;96.50
37938;DHT22;23763;48.130;11.602;2022-08-01T00:20:50;22.50;96.60
37938;DHT22;23763;48.130;11.602;2022-08-01T00:23:16;22.40;96.70
37938;DHT22;23763;48.130;11.602;2022-08-01T00:25:42;22.40;96.90
37938;DHT22;23763;48.130;11.602;2022-08-01T00:28:08;22.40;97.20
37938;DHT22;23763;48.130;11.602;2022-08-01T00:30:34;22.30;97.30
37938;DHT22;23763;48.130;11.602;2022-08-01T00:33:01;22.30;97.50
37938;DHT22;23763;48.130;11.602;2022-08-01T00:35:27;22.30;97.30
37938;DHT22;23763;48.130;11.602;2022-08-01T00:37:52;22.30;97.30
37938;DHT22;23763;48.130;11.602;2022-08-01T00:40:18;22.20;97.40
37938;DHT22;23763;48.130;11.602;2022-08-01T00:42:44;22.20;97.10
37938;DHT22;23763;48.130;11.602;2022-08-01T00:45:11;22.20;97.10
37938;DHT22;23763;48.130;11.602;2022-08-01T00:47:37;22.20;96.90
37938;DHT22;23763;48.130;11.602;2022-08-01T00:50:06;22.10;96.70
37938;DHT22;23763;48.130;11.602;2022-08-01T00:52:33;22.10;96.70
37938;DHT22;23763;48.130;11.602;2022-08-01T00:54:59;22.10;97.10
37938;DHT22;23763;48.130;11.602;2022-08-01T00:57:25;22.00;97.00
37938;DHT22;23763;48.130;11.602;2022-08-01T00:59:52;22.00;96.80
37938;DHT22;23763;48.130;11.602;2022-08-01T01:02:18;22.00;96.80
37938;DHT22;23763;48.130;11.602;2022-08-01T01:04:44;22.00;96.90
37938;DHT22;23763;48.130;11.602;2022-08-01T01:15:02;21.80;97.00
37938;DHT22;23763;48.130;11.602;2022-08-01T01:17:41;21.80;97.20
37938;DHT22;23763;48.130;11.602;2022-08-01T01:20:10;21.70;97.00
37938;DHT22;23763;48.130;11.602;2022-08-01T01:31:50;21.60;97.50
37938;DHT22;23763;48.130;11.602;2022-08-01T01:34:19;21.60;97.50
37938;DHT22;23763;48.130;11.602;2022-08-01T01:36:47;21.60;97.50
37938;DHT22;23763;48.130;11.602;2022-08-01T01:39:14;21.60;97.30
37938;DHT22;23763;48.130;11.602;2022-08-01T01:41:41;21.60;97.00
37938;DHT22;23763;48.130;11.602;2022-08-01T01:44:09;21.60;97.50
37938;DHT22;23763;48.130;11.602;2022-08-01T01:46:36;21.50;97.30
37938;DHT22;23763;48.130;11.602;2022-08-01T01:49:02;21.50;97.50
37938;DHT22;23763;48.130;11.602;2022-08-01T01:51:29;21.50;97.50
37938;DHT22;23763;48.130;11.602;2022-08-01T01:53:56;21.40;97.50
37938;DHT22;23763;48.130;11.602;2022-08-01T01:56:24;21.40;97.60
37938;DHT22;23763;48.130;11.602;2022-08-01T01:58:54;21.40;97.70
37938;DHT22;23763;48.130;11.602;2022-08-01T02:01:24;21.40;97.70
37938;DHT22;23763;48.130;11.602;2022-08-01T02:03:51;21.50;97.60
37938;DHT22;23763;48.130;11.602;2022-08-01T02:06:19;21.60;97.40
37938;DHT22;23763;48.130;11.602;2022-08-01T02:08:47;21.60;97.40
37938;DHT22;23763;48.130;11.602;2022-08-01T02:11:13;21.70;97.20
37938;DHT22;23763;48.130;11.602;2022-08-01T02:16:19;21.70;97.20
37938;DHT22;23763;48.130;11.602;2022-08-01T02:18:45;21.70;97.10
37938;DHT22;23763;48.130;11.602;2022-08-01T02:21:13;21.70;97.10
37938;DHT22;23763;48.130;11.602;2022-08-01T02:23:42;21.70;97.00
37938;DHT22;23763;48.130;11.602;2022-08-01T02:26:14;21.70;97.00
37938;DHT22;23763;48.130;11.602;2022-08-01T02:29:06;21.60;97.10
37938;DHT22;23763;48.130;11.602;2022-08-01T02:31:38;21.50;97.10
37938;DHT22;23763;48.130;11.602;2022-08-01T02:34:07;21.50;97.00
37938;DHT22;23763;48.130;11.602;2022-08-01T02:36:35;21.40;97.10
37938;DHT22;23763;48.130;11.602;2022-08-01T02:39:04;21.60;96.70
37938;DHT22;23763;48.130;11.602;2022-08-01T02:41:33;21.50;97.10
37938;DHT22;23763;48.130;11.602;2022-08-01T02:44:03;21.50;96.90
37938;DHT22;23763;48.130;11.602;2022-08-01T02:46:43;21.50;96.80
37938;DHT22;23763;48.130;11.602;2022-08-01T02:49:12;21.50;96.80
37938;DHT22;23763;48.130;11.602;2022-08-01T02:51:40;21.50;96.70
37938;DHT22;23763;48.130;11.602;2022-08-01T02:54:08;21.50;96.90
37938;DHT22;23763;48.130;11.602;2022-08-01T02:56:36;21.50;97.00
37938;DHT22;23763;48.130;11.602;2022-08-01T02:59:05;21.50;96.90
37938;DHT22;23763;48.130;11.602;2022-08-01T03:01:32;21.50;96.90
37938;DHT22;23763;48.130;11.602;2022-08-01T03:03:59;21.50;96.80
37938;DHT22;23763;48.130;11.602;2022-08-01T03:06:26;21.40;96.70
37938;DHT22;23763;48.130;11.602;2022-08-01T03:08:53;21.40;96.80
37938;DHT22;23763;48.130;11.602;2022-08-01T03:11:20;21.30;96.80
37938;DHT22;23763;48.130;11.602;2022-08-01T03:13:47;21.30;96.80
37938;DHT22;23763;48.130;11.602;2022-08-01T03:16:15;21.30;96.80
37938;DHT22;23763;48.130;11.602;2022-08-01T03:18:43;21.30;97.00
37938;DHT22;23763;48.130;11.602;2022-08-01T03:21:12;21.30;97.00
37938;DHT22;23763;48.130;11.602;2022-08-01T03:23:40;21.20;97.20
37938;DHT22;23763;48.130;11.602;2022-08-01T03:26:08;21.20;97.00
37938;DHT22;23763;48.130;11.602;2022-08-01T03:28:35;21.20;97.10
37938;DHT22;23763;48.130;11.602;2022-08-01T03:31:02;21.10;97.20
37938;DHT22;23763;48.130;11.602;2022-08-01T03:33:28;21.20;97.40
37938;DHT22;23763;48.130;11.602;2022-08-01T03:35:55;21.10;97.30
37938;DHT22;23763;48.130;11.602;2022-08-01T03:38:25;21.20;97.40
37938;DHT22;23763;48.130;11.602;2022-08-01T03:41:20;21.10;97.20
37938;DHT22;23763;48.130;11.602;2022-08-01T03:43:50;21.10;97.50
37938;DHT22;23763;48.130;11.602;2022-08-01T03:46:51;21.10;97.10
37938;DHT22;23763;48.130;11.602;2022-08-01T03:49:17;21.10;97.30
37938;DHT22;23763;48.130;11.602;2022-08-01T03:51:47;21.00;97.20
37938;DHT22;23763;48.130;11.602;2022-08-01T03:54:16;21.00;97.40
37938;DHT22;23763;48.130;11.602;2022-08-01T03:56:43;21.00;97.40
37938;DHT22;23763;48.130;11.602;2022-08-01T03:59:11;21.00;97.40
37938;DHT22;23763;48.130;11.602;2022-08-01T04:01:37;20.90;97.40
37938;DHT22;23763;48.130;11.602;2022-08-01T04:04:03;20.90;97.30
37938;DHT22;23763;48.130;11.602;2022-08-01T04:06:31;20.90;97.40
37938;DHT22;23763;48.130;11.602;2022-08-01T04:08:57;20.90;97.70
37938;DHT22;23763;48.130;11.602;2022-08-01T04:11:24;20.90;97.50
37938;DHT22;23763;48.130;11.602;2022-08-01T04:13:54;20.90;97.60
37938;DHT22;23763;48.130;11.602;2022-08-01T04:16:21;20.90;97.70
37938;DHT22;23763;48.130;11.602;2022-08-01T04:18:46;20.90;97.50
37938;DHT22;23763;48.130;11.602;2022-08-01T04:21:13;20.90;97.50
37938;DHT22;23763;48.130;11.602;2022-08-01T04:23:41;21.00;97.60
37938;DHT22;23763;48.130;11.602;2022-08-01T04:26:09;21.00;97.50
37938;DHT22;23763;48.130;11.602;2022-08-01T04:28:37;21.00;97.50
37938;DHT22;23763;48.130;11.602;2022-08-01T04:31:07;21.00;97.20
37938;DHT22;23763;48.130;11.602;2022-08-01T04:33:35;21.00;97.30
37938;DHT22;23763;48.130;11.602;2022-08-01T04:36:04;21.00;97.30
37938;DHT22;23763;48.130;11.602;2022-08-01T04:38:33;21.00;97.30
37938;DHT22;23763;48.130;11.602;2022-08-01T04:41:00;21.00;97.20
37938;DHT22;23763;48.130;11.602;2022-08-01T04:43:27;21.10;97.30
37938;DHT22;23763;48.130;11.602;2022-08-01T04:45:54;21.10;97.10
37938;DHT22;23763;48.130;11.602;2022-08-01T04:48:21;21.20;97.30
37938;DHT22;23763;48.130;11.602;2022-08-01T04:50:47;21.30;97.10
37938;DHT22;23763;48.130;11.602;2022-08-01T04:53:17;21.40;97.40
37938;DHT22;23763;48.130;11.602;2022-08-01T04:55:43;21.50;96.70
37938;DHT22;23763;48.130;11.602;2022-08-01T04:58:10;21.60;96.50
37938;DHT22;23763;48.130;11.602;2022-08-01T05:00:36;21.70;96.20
37938;DHT22;23763;48.130;11.602;2022-08-01T05:03:02;21.80;96.30
37938;DHT22;23763;48.130;11.602;2022-08-01T05:05:28;22.00;95.90
37938;DHT22;23763;48.130;11.602;2022-08-01T05:07:53;22.10;95.60
37938;DHT22;23763;48.130;11.602;2022-08-01T05:10:19;22.30;95.30
37938;DHT22;23763;48.130;11.602;2022-08-01T05:12:45;22.40;95.40
37938;DHT22;23763;48.130;11.602;2022-08-01T05:15:12;22.50;95.10
37938;DHT22;23763;48.130;11.602;2022-08-01T05:17:37;22.50;95.10
37938;DHT22;23763;48.130;11.602;2022-08-01T05:20:03;22.50;94.90
37938;DHT22;23763;48.130;11.602;2022-08-01T05:22:31;22.60;94.80
37938;DHT22;23763;48.130;11.602;2022-08-01T05:24:57;22.70;94.50
37938;DHT22;23763;48.130;11.602;2022-08-01T05:27:23;22.70;94.60
37938;DHT22;23763;48.130;11.602;2022-08-01T05:29:48;22.80;94.60
37938;DHT22;23763;48.130;11.602;2022-08-01T05:32:14;23.00;94.30
37938;DHT22;23763;48.130;11.602;2022-08-01T05:34:39;23.00;94.00
37938;DHT22;23763;48.130;11.602;2022-08-01T05:37:05;23.10;94.00
37938;DHT22;23763;48.130;11.602;2022-08-01T05:39:32;23.10;93.90
37938;DHT22;23763;48.130;11.602;2022-08-01T05:41:58;23.20;93.90
37938;DHT22;23763;48.130;11.602;2022-08-01T05:44:24;23.40;93.70
37938;DHT22;23763;48.130;11.602;2022-08-01T05:46:50;23.50;93.20
37938;DHT22;23763;48.130;11.602;2022-08-01T05:49:16;23.60;93.10
37938;DHT22;23763;48.130;11.602;2022-08-01T05:51:42;23.50;93.10
37938;DHT22;23763;48.130;11.602;2022-08-01T05:54:08;23.40;93.40
37938;DHT22;23763;48.130;11.602;2022-08-01T05:56:34;23.10;93.60
37938;DHT22;23763;48.130;11.602;2022-08-01T05:58:59;22.80;93.90
37938;DHT22;23763;48.130;11.602;2022-08-01T06:01:25;22.70;94.10
37938;DHT22;23763;48.130;11.602;2022-08-01T06:03:51;22.70;94.50
37938;DHT22;23763;48.130;11.602;2022-08-01T06:06:20;22.60;94.70
37938;DHT22;23763;48.130;11.602;2022-08-01T06:08:45;22.50;94.60
37938;DHT22;23763;48.130;11.602;2022-08-01T06:11:11;22.50;94.60
37938;DHT22;23763;48.130;11.602;2022-08-01T06:13:37;22.50;94.70
37938;DHT22;23763;48.130;11.602;2022-08-01T06:16:02;22.40;94.90
37938;DHT22;23763;48.130;11.602;2022-08-01T06:18:28;22.50;94.90
37938;DHT22;23763;48.130;11.602;2022-08-01T06:20:54;22.50;94.90
37938;DHT22;23763;48.130;11.602;2022-08-01T06:23:20;22.50;95.00
37938;DHT22;23763;48.130;11.602;2022-08-01T06:25:46;22.60;94.90
37938;DHT22;23763;48.130;11.602;2022-08-01T06:28:13;22.70;94.60
37938;DHT22;23763;48.130;11.602;2022-08-01T06:30:38;22.70;94.60
37938;DHT22;23763;48.130;11.602;2022-08-01T06:33:04;22.80;94.40
37938;DHT22;23763;48.130;11.602;2022-08-01T06:35:30;22.80;94.60
37938;DHT22;23763;48.130;11.602;2022-08-01T06:37:57;22.80;94.60
37938;DHT22;23763;48.130;11.602;2022-08-01T06:40:23;22.80;94.60
37938;DHT22;23763;48.130;11.602;2022-08-01T06:42:49;22.90;94.40
37938;DHT22;23763;48.130;11.602;2022-08-01T06:45:15;22.90;94.40
37938;DHT22;23763;48.130;11.602;2022-08-01T06:47:43;22.90;94.60
37938;DHT22;23763;48.130;11.602;2022-08-01T06:50:10;23.10;94.30
37938;DHT22;23763;48.130;11.602;2022-08-01T06:52:36;23.10;94.20
37938;DHT22;23763;48.130;11.602;2022-08-01T06:55:03;23.20;94.00
37938;DHT22;23763;48.130;11.602;2022-08-01T06:57:28;23.10;94.20
37938;DHT22;23763;48.130;11.602;2022-08-01T06:59:54;23.20;94.10
37938;DHT22;23763;48.130;11.602;2022-08-01T07:02:20;23.20;94.10
37938;DHT22;23763;48.130;11.602;2022-08-01T07:04:46;23.30;94.10
37938;DHT22;23763;48.130;11.602;2022-08-01T07:07:12;23.40;94.00
37938;DHT22;23763;48.130;11.602;2022-08-01T07:09:37;23.60;93.70
37938;DHT22;23763;48.130;11.602;2022-08-01T07:12:06;23.80;93.50
37938;DHT22;23763;48.130;11.602;2022-08-01T07:14:32;24.00;93.30
37938;DHT22;23763;48.130;11.602;2022-08-01T07:16:58;24.50;92.60
37938;DHT22;23763;48.130;11.602;2022-08-01T07:19:24;25.30;91.60
37938;DHT22;23763;48.130;11.602;2022-08-01T07:21:50;26.60;90.20
37938;DHT22;23763;48.130;11.602;2022-08-01T07:24:16;27.00;88.50
37938;DHT22;23763;48.130;11.602;2022-08-01T07:26:44;26.90;88.20
37938;DHT22;23763;48.130;11.602;2022-08-01T07:29:10;26.40;89.30
37938;DHT22;23763;48.130;11.602;2022-08-01T07:31:35;26.10;90.00
37938;DHT22;23763;48.130;11.602;2022-08-01T07:34:01;25.80;90.40
37938;DHT22;23763;48.130;11.602;2022-08-01T07:36:27;25.20;90.90
37938;DHT22;23763;48.130;11.602;2022-08-01T07:38:52;25.00;91.50
37938;DHT22;23763;48.130;11.602;2022-08-01T07:41:18;24.90;91.30
37938;DHT22;23763;48.130;11.602;2022-08-01T07:43:45;24.70;91.70
37938;DHT22;23763;48.130;11.602;2022-08-01T07:46:11;24.70;91.90
37938;DHT22;23763;48.130;11.602;2022-08-01T07:48:36;24.80;91.80
37938;DHT22;23763;48.130;11.602;2022-08-01T07:51:02;25.60;91.10
37938;DHT22;23763;48.130;11.602;2022-08-01T07:53:28;28.30;87.10
37938;DHT22;23763;48.130;11.602;2022-08-01T07:55:54;31.20;79.80
37938;DHT22;23763;48.130;11.602;2022-08-01T07:58:20;33.30;74.20
37938;DHT22;23763;48.130;11.602;2022-08-01T08:00:45;35.30;68.70
37938;DHT22;23763;48.130;11.602;2022-08-01T08:03:11;37.10;64.70
37938;DHT22;23763;48.130;11.602;2022-08-01T08:05:37;38.60;59.90
37938;DHT22;23763;48.130;11.602;2022-08-01T08:08:07;39.20;58.40
37938;DHT22;23763;48.130;11.602;2022-08-01T08:10:33;39.50;56.90
37938;DHT22;23763;48.130;11.602;2022-08-01T08:13:00;39.40;56.30
37938;DHT22;23763;48.130;11.602;2022-08-01T08:15:29;38.10;56.50
37938;DHT22;23763;48.130;11.602;2022-08-01T08:17:55;38.60;56.90
37938;DHT22;23763;48.130;11.602;2022-08-01T08:20:21;38.80;56.30
37938;DHT22;23763;48.130;11.602;2022-08-01T08:22:51;39.00;56.00
37938;DHT22;23763;48.130;11.602;2022-08-01T08:25:16;39.10;55.00
37938;DHT22;23763;48.130;11.602;2022-08-01T08:27:45;39.00;55.60
37938;DHT22;23763;48.130;11.602;2022-08-01T08:30:11;39.80;51.20
37938;DHT22;23763;48.130;11.602;2022-08-01T08:32:37;40.30;50.30
37938;DHT22;23763;48.130;11.602;2022-08-01T08:35:04;40.10;50.00
37938;DHT22;23763;48.130;11.602;2022-08-01T08:37:30;40.40;50.40
37938;DHT22;23763;48.130;11.602;2022-08-01T08:39:56;39.60;50.50
37938;DHT22;23763;48.130;11.602;2022-08-01T08:42:22;40.20;49.80
37938;DHT22;23763;48.130;11.602;2022-08-01T08:44:48;39.40;51.10
37938;DHT22;23763;48.130;11.602;2022-08-01T08:47:14;39.20;51.80
37938;DHT22;23763;48.130;11.602;2022-08-01T08:49:43;40.10;50.90
37938;DHT22;23763;48.130;11.602;2022-08-01T08:52:10;39.60;50.70
37938;DHT22;23763;48.130;11.602;2022-08-01T08:54:41;39.90;50.90
37938;DHT22;23763;48.130;11.602;2022-08-01T08:57:07;39.70;50.70
37938;DHT22;23763;48.130;11.602;2022-08-01T08:59:33;39.70;51.20
37938;DHT22;23763;48.130;11.602;2022-08-01T09:01:59;38.40;52.90
37938;DHT22;23763;48.130;11.602;2022-08-01T09:04:25;37.10;55.00
37938;DHT22;23763;48.130;11.602;2022-08-01T09:06:52;37.80;55.50
37938;DHT22;23763;48.130;11.602;2022-08-01T09:09:18;38.00;55.40
37938;DHT22;23763;48.130;11.602;2022-08-01T09:11:44;37.60;55.40
37938;DHT22;23763;48.130;11.602;2022-08-01T09:14:15;36.40;56.90
37938;DHT22;23763;48.130;11.602;2022-08-01T09:17:02;35.40;58.50
37938;DHT22;23763;48.130;11.602;2022-08-01T09:19:43;34.90;59.30
37938;DHT22;23763;48.130;11.602;2022-08-01T09:22:11;34.50;59.60
37938;DHT22;23763;48.130;11.602;2022-08-01T09:24:38;34.20;60.70
37938;DHT22;23763;48.130;11.602;2022-08-01T09:27:19;33.20;62.50
37938;DHT22;23763;48.130;11.602;2022-08-01T09:29:45;32.20;64.80
37938;DHT22;23763;48.130;11.602;2022-08-01T09:32:12;31.50;67.50
37938;DHT22;23763;48.130;11.602;2022-08-01T09:34:37;31.00;67.80
37938;DHT22;23763;48.130;11.602;2022-08-01T09:37:03;30.40;68.40
37938;DHT22;23763;48.130;11.602;2022-08-01T09:39:35;30.00;69.20
37938;DHT22;23763;48.130;11.602;2022-08-01T09:42:20;29.60;70.50
37938;DHT22;23763;48.130;11.602;2022-08-01T09:44:46;29.60;71.20
37938;DHT22;23763;48.130;11.602;2022-08-01T09:47:13;29.20;72.10
37938;DHT22;23763;48.130;11.602;2022-08-01T09:49:40;29.00;72.40
37938;DHT22;23763;48.130;11.602;2022-08-01T09:52:18;28.80;72.90
37938;DHT22;23763;48.130;11.602;2022-08-01T09:54:52;28.60;74.20
37938;DHT22;23763;48.130;11.602;2022-08-01T09:57:20;28.80;74.60
37938;DHT22;23763;48.130;11.602;2022-08-01T09:59:48;28.90;74.10
37938;DHT22;23763;48.130;11.602;2022-08-01T10:02:27;28.90;72.50
37938;DHT22;23763;48.130;11.602;2022-08-01T10:04:53;28.80;72.80
37938;DHT22;23763;48.130;11.602;2022-08-01T10:07:21;28.60;73.60
37938;DHT22;23763;48.130;11.602;2022-08-01T10:09:48;28.50;74.10
37938;DHT22;23763;48.130;11.602;2022-08-01T10:12:16;28.60;73.80
37938;DHT22;23763;48.130;11.602;2022-08-01T10:14:44;28.60;74.10
37938;DHT22;23763;48.130;11.602;2022-08-01T10:17:14;28.40;73.80
37938;DHT22;23763;48.130;11.602;2022-08-01T10:19:41;28.50;74.50
37938;DHT22;23763;48.130;11.602;2022-08-01T10:22:09;28.50;74.80
37938;DHT22;23763;48.130;11.602;2022-08-01T10:24:39;28.60;75.40
37938;DHT22;23763;48.130;11.602;2022-08-01T10:27:07;28.50;74.30
37938;DHT22;23763;48.130;11.602;2022-08-01T10:29:41;28.40;74.90
37938;DHT22;23763;48.130;11.602;2022-08-01T10:32:09;28.10;75.30
37938;DHT22;23763;48.130;11.602;2022-08-01T10:34:36;28.20;76.20
37938;DHT22;23763;48.130;11.602;2022-08-01T10:37:04;28.40;76.20
37938;DHT22;23763;48.130;11.602;2022-08-01T10:39:31;28.60;75.70
37938;DHT22;23763;48.130;11.602;2022-08-01T10:41:57;28.70;75.80
37938;DHT22;23763;48.130;11.602;2022-08-01T10:44:25;28.70;75.20
37938;DHT22;23763;48.130;11.602;2022-08-01T10:46:56;28.70;75.00
37938;DHT22;23763;48.130;11.602;2022-08-01T10:49:26;28.60;75.20
37938;DHT22;23763;48.130;11.602;2022-08-01T10:51:53;28.80;75.40
37938;DHT22;23763;48.130;11.602;2022-08-01T10:54:19;28.80;75.60
37938;DHT22;23763;48.130;11.602;2022-08-01T10:56:50;28.60;75.10
37938;DHT22;23763;48.130;11.602;2022-08-01T10:59:22;28.50;75.20
37938;DHT22;23763;48.130;11.602;2022-08-01T11:02:03;28.50;75.00
37938;DHT22;23763;48.130;11.602;2022-08-01T11:04:48;28.60;75.20
37938;DHT22;23763;48.130;11.602;2022-08-01T11:07:18;28.50;75.10
37938;DHT22;23763;48.130;11.602;2022-08-01T11:09:46;28.40;74.60
37938;DHT22;23763;48.130;11.602;2022-08-01T11:12:16;28.30;75.20
37938;DHT22;23763;48.130;11.602;2022-08-01T11:17:37;28.50;76.10
37938;DHT22;23763;48.130;11.602;2022-08-01T11:30:45;28.90;74.50
37938;DHT22;23763;48.130;11.602;2022-08-01T11:33:12;29.00;73.80
37938;DHT22;23763;48.130;11.602;2022-08-01T11:38:46;28.80;74.40
37938;DHT22;23763;48.130;11.602;2022-08-01T11:41:27;28.80;74.90
37938;DHT22;23763;48.130;11.602;2022-08-01T11:47:05;28.90;74.00
37938;DHT22;23763;48.130;11.602;2022-08-01T11:54:40;28.80;72.40
37938;DHT22;23763;48.130;11.602;2022-08-01T11:57:08;28.60;73.60
37938;DHT22;23763;48.130;11.602;2022-08-01T11:59:45;28.80;73.10
37938;DHT22;23763;48.130;11.602;2022-08-01T12:02:16;29.00;73.30
37938;DHT22;23763;48.130;11.602;2022-08-01T12:07:15;28.80;71.50
37938;DHT22;23763;48.130;11.602;2022-08-01T12:09:41;28.90;72.10
37938;DHT22;23763;48.130;11.602;2022-08-01T12:12:07;29.10;70.50
37938;DHT22;23763;48.130;11.602;2022-08-01T12:14:33;29.00;70.70
37938;DHT22;23763;48.130;11.602;2022-08-01T12:16:58;28.80;71.10
37938;DHT22;23763;48.130;11.602;2022-08-01T12:19:24;28.90;71.20
37938;DHT22;23763;48.130;11.602;2022-08-01T12:22:10;28.90;71.30
37938;DHT22;23763;48.130;11.602;2022-08-01T12:24:37;28.90;69.80
37938;DHT22;23763;48.130;11.602;2022-08-01T12:27:05;28.90;68.80
37938;DHT22;23763;48.130;11.602;2022-08-01T12:29:40;28.70;69.80
37938;DHT22;23763;48.130;11.602;2022-08-01T12:32:30;28.50;69.70
37938;DHT22;23763;48.130;11.602;2022-08-01T12:35:00;28.60;69.90
37938;DHT22;23763;48.130;11.602;2022-08-01T12:37:26;28.70;70.60
37938;DHT22;23763;48.130;11.602;2022-08-01T12:39:53;28.80;70.90
37938;DHT22;23763;48.130;11.602;2022-08-01T12:42:19;28.90;71.20
37938;DHT22;23763;48.130;11.602;2022-08-01T12:44:48;29.00;70.70
37938;DHT22;23763;48.130;11.602;2022-08-01T12:47:17;28.90;68.90
37938;DHT22;23763;48.130;11.602;2022-08-01T12:49:44;28.80;68.50
37938;DHT22;23763;48.130;11.602;2022-08-01T12:52:10;28.80;69.60
37938;DHT22;23763;48.130;11.602;2022-08-01T12:57:38;29.10;70.10
37938;DHT22;23763;48.130;11.602;2022-08-01T13:02:38;29.30;69.80
37938;DHT22;23763;48.130;11.602;2022-08-01T13:05:05;29.40;69.00
37938;DHT22;23763;48.130;11.602;2022-08-01T13:07:46;29.50;68.50
37938;DHT22;23763;48.130;11.602;2022-08-01T13:10:14;29.60;68.00
37938;DHT22;23763;48.130;11.602;2022-08-01T13:12:50;29.60;68.30
37938;DHT22;23763;48.130;11.602;2022-08-01T13:15:37;29.60;67.60
37938;DHT22;23763;48.130;11.602;2022-08-01T13:18:27;29.30;66.90
37938;DHT22;23763;48.130;11.602;2022-08-01T13:21:31;29.10;69.00
37938;DHT22;23763;48.130;11.602;2022-08-01T13:24:13;29.10;69.60
37938;DHT22;23763;48.130;11.602;2022-08-01T13:26:47;29.00;70.10
37938;DHT22;23763;48.130;11.602;2022-08-01T13:29:15;28.80;70.50
37938;DHT22;23763;48.130;11.602;2022-08-01T13:31:41;28.50;72.00
37938;DHT22;23763;48.130;11.602;2022-08-01T13:34:08;28.20;74.30
37938;DHT22;23763;48.130;11.602;2022-08-01T13:36:34;28.00;75.10
37938;DHT22;23763;48.130;11.602;2022-08-01T13:39:01;27.90;75.50
37938;DHT22;23763;48.130;11.602;2022-08-01T13:41:46;27.80;74.90
37938;DHT22;23763;48.130;11.602;2022-08-01T13:44:12;27.90;75.00
37938;DHT22;23763;48.130;11.602;2022-08-01T13:46:40;28.10;74.80
37938;DHT22;23763;48.130;11.602;2022-08-01T13:49:07;28.30;73.90
37938;DHT22;23763;48.130;11.602;2022-08-01T13:51:34;28.50;73.10
37938;DHT22;23763;48.130;11.602;2022-08-01T13:54:00;28.50;73.20
37938;DHT22;23763;48.130;11.602;2022-08-01T13:56:26;28.60;73.90
37938;DHT22;23763;48.130;11.602;2022-08-01T13:58:55;28.50;73.60
37938;DHT22;23763;48.130;11.602;2022-08-01T14:01:22;28.60;74.50
37938;DHT22;23763;48.130;11.602;2022-08-01T14:03:48;28.40;73.40
37938;DHT22;23763;48.130;11.602;2022-08-01T14:06:14;28.20;72.70
37938;DHT22;23763;48.130;11.602;2022-08-01T14:08:42;28.00;73.10
37938;DHT22;23763;48.130;11.602;2022-08-01T14:11:08;28.00;72.80
37938;DHT22;23763;48.130;11.602;2022-08-01T14:13:34;28.00;72.80
37938;DHT22;23763;48.130;11.602;2022-08-01T14:16:02;28.00;72.50
37938;DHT22;23763;48.130;11.602;2022-08-01T14:18:28;28.00;72.10
37938;DHT22;23763;48.130;11.602;2022-08-01T14:20:53;27.90;72.30
37938;DHT22;23763;48.130;11.602;2022-08-01T14:23:19;27.90;72.50
37938;DHT22;23763;48.130;11.602;2022-08-01T14:25:45;27.60;75.40
37938;DHT22;23763;48.130;11.602;2022-08-01T14:28:10;27.30;77.50
37938;DHT22;23763;48.130;11.602;2022-08-01T14:30:36;27.00;78.70
37938;DHT22;23763;48.130;11.602;2022-08-01T14:33:02;26.90;79.70
37938;DHT22;23763;48.130;11.602;2022-08-01T14:35:28;26.80;79.10
37938;DHT22;23763;48.130;11.602;2022-08-01T14:37:54;26.80;78.70
37938;DHT22;23763;48.130;11.602;2022-08-01T14:40:20;26.80;77.50
37938;DHT22;23763;48.130;11.602;2022-08-01T14:42:45;26.80;77.10
37938;DHT22;23763;48.130;11.602;2022-08-01T14:45:12;26.80;77.90
37938;DHT22;23763;48.130;11.602;2022-08-01T14:47:40;27.00;77.30
37938;DHT22;23763;48.130;11.602;2022-08-01T14:50:08;27.10;77.30
37938;DHT22;23763;48.130;11.602;2022-08-01T14:52:35;27.20;78.10
37938;DHT22;23763;48.130;11.602;2022-08-01T14:55:01;27.30;78.30
37938;DHT22;23763;48.130;11.602;2022-08-01T14:57:28;27.30;78.90
37938;DHT22;23763;48.130;11.602;2022-08-01T14:59:55;27.30;79.30
37938;DHT22;23763;48.130;11.602;2022-08-01T15:02:20;27.20;79.40
37938;DHT22;23763;48.130;11.602;2022-08-01T15:04:47;27.10;79.60
37938;DHT22;23763;48.130;11.602;2022-08-01T15:07:13;27.00;79.40
37938;DHT22;23763;48.130;11.602;2022-08-01T15:09:40;27.00;79.80
37938;DHT22;23763;48.130;11.602;2022-08-01T15:12:06;26.90;80.10
37938;DHT22;23763;48.130;11.602;2022-08-01T15:14:32;26.90;81.00
37938;DHT22;23763;48.130;11.602;2022-08-01T15:17:24;26.70;82.10
37938;DHT22;23763;48.130;11.602;2022-08-01T15:19:54;26.70;82.30
37938;DHT22;23763;48.130;11.602;2022-08-01T15:22:22;26.70;82.40
37938;DHT22;23763;48.130;11.602;2022-08-01T15:24:49;26.60;83.20
37938;DHT22;23763;48.130;11.602;2022-08-01T15:27:15;26.50;83.40
37938;DHT22;23763;48.130;11.602;2022-08-01T15:29:41;26.40;83.50
37938;DHT22;23763;48.130;11.602;2022-08-01T15:32:08;26.30;83.70
37938;DHT22;23763;48.130;11.602;2022-08-01T15:34:38;26.30;83.50
37938;DHT22;23763;48.130;11.602;2022-08-01T15:37:05;26.30;83.80
37938;DHT22;23763;48.130;11.602;2022-08-01T15:39:34;26.20;85.40
37938;DHT22;23763;48.130;11.602;2022-08-01T15:42:05;26.10;86.80
37938;DHT22;23763;48.130;11.602;2022-08-01T15:44:32;26.00;87.40
37938;DHT22;23763;48.130;11.602;2022-08-01T15:46:59;25.80;88.10
37938;DHT22;23763;48.130;11.602;2022-08-01T15:49:26;25.70;89.20
37938;DHT22;23763;48.130;11.602;2022-08-01T15:51:52;25.60;90.20
37938;DHT22;23763;48.130;11.602;2022-08-01T15:54:18;25.40;90.80
37938;DHT22;23763;48.130;11.602;2022-08-01T15:56:44;25.40;91.00
37938;DHT22;23763;48.130;11.602;2022-08-01T15:59:12;25.30;91.50
37938;DHT22;23763;48.130;11.602;2022-08-01T16:01:39;25.20;91.80
37938;DHT22;23763;48.130;11.602;2022-08-01T16:04:05;25.00;92.20
37938;DHT22;23763;48.130;11.602;2022-08-01T16:06:33;24.90;92.40
37938;DHT22;23763;48.130;11.602;2022-08-01T16:08:59;24.90;92.50
37938;DHT22;23763;48.130;11.602;2022-08-01T16:11:25;24.80;92.50
37938;DHT22;23763;48.130;11.602;2022-08-01T16:13:55;24.80;92.70